sensor_id;sensor_type;location;lat;lon;timestamp;temperature;humidity
20915;DHT22;10617;52.032;5.298;2024-01-30T00:09:08;7.70;99.90
20915;DHT22;10617;52.032;5.298;2024-01-30T00:13:10;7.60;99.90
20915;DHT22;10617;52.032;5.298;2024-01-30T00:17:12;7.60;99.90
20915;DHT22;10617;52.032;5.298;2024-01-30T00:21:14;7.50;99.90
20915;DHT22;10617;52.032;5.298;2024-01-30T00:25:15;7.50;99.90
20915;DHT22;10617;52.032;5.298;2024-01-30T00:29:17;7.50;99.90
20915;DHT22;10617;52.032;5.298;2024-01-30T00:33:40;7.40;99.90
20915;DHT22;10617;52.032;5.298;2024-01-30T00:37:42;7.30;99.90
20915;DHT22;10617;52.032;5.298;2024-01-30T00:41:44;7.30;99.90
20915;DHT22;10617;52.032;5.298;2024-01-30T00:45:46;7.20;99.90
20915;DHT22;10617;52.032;5.298;2024-01-30T00:49:48;7.10;99.90
20915;DHT22;10617;52.032;5.298;2024-01-30T00:53:49;7.10;99.90
20915;DHT22;10617;52.032;5.298;2024-01-30T00:57:51;7.20;99.90
20915;DHT22;10617;52.032;5.298;2024-01-30T01:01:53;7.20;99.90
20915;DHT22;10617;52.032;5.298;2024-01-30T01:05:55;7.20;99.90
20915;DHT22;10617;52.032;5.298;2024-01-30T01:09:57;7.10;99.90
20915;DHT22;10617;52.032;5.298;2024-01-30T01:13:59;7.10;99.90
20915;DHT22;10617;52.032;5.298;2024-01-30T01:23:23;7.10;99.90
20915;DHT22;10617;52.032;5.298;2024-01-30T01:27:25;7.10;99.90
20915;DHT22;10617;52.032;5.298;2024-01-30T01:31:27;7.00;99.90
20915;DHT22;10617;52.032;5.298;2024-01-30T01:35:31;7.10;99.90
20915;DHT22;10617;52.032;5.298;2024-01-30T01:39:33;7.10;99.90
20915;DHT22;10617;52.032;5.298;2024-01-30T01:43:35;7.10;99.90
20915;DHT22;10617;52.032;5.298;2024-01-30T01:47:37;7.20;99.90
20915;DHT22;10617;52.032;5.298;2024-01-30T01:51:39;7.20;99.90
20915;DHT22;10617;52.032;5.298;2024-01-30T01:55:43;7.20;99.90
20915;DHT22;10617;52.032;5.298;2024-01-30T01:59:44;7.20;99.90
20915;DHT22;10617;52.032;5.298;2024-01-30T02:03:47;7.30;99.90
20915;DHT22;10617;52.032;5.298;2024-01-30T02:07:50;7.30;99.90
20915;DHT22;10617;52.032;5.298;2024-01-30T02:12:14;7.30;99.90
20915;DHT22;10617;52.032;5.298;2024-01-30T02:16:16;7.30;99.90
20915;DHT22;10617;52.032;5.298;2024-01-30T02:20:23;7.30;99.90
20915;DHT22;10617;52.032;5.298;2024-01-30T02:24:26;7.30;99.90
20915;DHT22;10617;52.032;5.298;2024-01-30T02:28:28;7.30;99.90
20915;DHT22;10617;52.032;5.298;2024-01-30T02:32:30;7.30;99.90
20915;DHT22;10617;52.032;5.298;2024-01-30T02:36:31;7.30;99.90
20915;DHT22;10617;52.032;5.298;2024-01-30T02:40:33;7.30;99.90
20915;DHT22;10617;52.032;5.298;2024-01-30T02:49:57;7.20;99.90
20915;DHT22;10617;52.032;5.298;2024-01-30T02:54:02;7.20;99.90
20915;DHT22;10617;52.032;5.298;2024-01-30T02:58:04;7.20;99.90
20915;DHT22;10617;52.032;5.298;2024-01-30T03:02:05;7.20;99.90
20915;DHT22;10617;52.032;5.298;2024-01-30T03:06:07;7.20;99.90
20915;DHT22;10617;52.032;5.298;2024-01-30T03:10:09;7.20;99.90
20915;DHT22;10617;52.032;5.298;2024-01-30T03:14:11;7.20;99.90
20915;DHT22;10617;52.032;5.298;2024-01-30T03:18:13;7.20;99.90
20915;DHT22;10617;52.032;5.298;2024-01-30T03:22:15;7.20;99.90
20915;DHT22;10617;52.032;5.298;2024-01-30T03:26:17;7.30;99.90
20915;DHT22;10617;52.032;5.298;2024-01-30T03:30:19;7.30;99.90
20915;DHT22;10617;52.032;5.298;2024-01-30T03:34:20;7.30;99.90
20915;DHT22;10617;52.032;5.298;2024-01-30T03:38:22;7.40;99.90
20915;DHT22;10617;52.032;5.298;2024-01-30T03:42:24;7.40;99.90
20915;DHT22;10617;52.032;5.298;2024-01-30T03:46:26;7.40;99.90
20915;DHT22;10617;52.032;5.298;2024-01-30T03:50:28;7.50;99.90
20915;DHT22;10617;52.032;5.298;2024-01-30T03:54:30;7.50;99.90
20915;DHT22;10617;52.032;5.298;2024-01-30T03:58:32;7.50;99.90
20915;DHT22;10617;52.032;5.298;2024-01-30T04:02:33;7.50;99.90
20915;DHT22;10617;52.032;5.298;2024-01-30T04:06:35;7.50;99.90
20915;DHT22;10617;52.032;5.298;2024-01-30T04:10:37;7.60;99.90
20915;DHT22;10617;52.032;5.298;2024-01-30T04:24:54;7.60;99.90
20915;DHT22;10617;52.032;5.298;2024-01-30T04:28:56;7.60;99.90
20915;DHT22;10617;52.032;5.298;2024-01-30T04:32:58;7.70;99.90
20915;DHT22;10617;52.032;5.298;2024-01-30T04:41:55;7.70;99.90
20915;DHT22;10617;52.032;5.298;2024-01-30T04:45:56;7.70;99.90
20915;DHT22;10617;52.032;5.298;2024-01-30T04:49:58;7.70;99.90
20915;DHT22;10617;52.032;5.298;2024-01-30T04:54:00;7.70;99.90
20915;DHT22;10617;52.032;5.298;2024-01-30T04:58:02;7.70;99.90
20915;DHT22;10617;52.032;5.298;2024-01-30T05:02:04;7.70;99.90
20915;DHT22;10617;52.032;5.298;2024-01-30T05:06:06;7.70;99.90
20915;DHT22;10617;52.032;5.298;2024-01-30T05:10:09;7.70;99.90
20915;DHT22;10617;52.032;5.298;2024-01-30T05:14:12;7.70;99.90
20915;DHT22;10617;52.032;5.298;2024-01-30T05:18:13;7.80;99.90
20915;DHT22;10617;52.032;5.298;2024-01-30T05:22:16;7.80;99.90
20915;DHT22;10617;52.032;5.298;2024-01-30T05:26:19;7.80;99.90
20915;DHT22;10617;52.032;5.298;2024-01-30T05:30:21;7.80;99.90
20915;DHT22;10617;52.032;5.298;2024-01-30T05:34:26;7.80;99.90
20915;DHT22;10617;52.032;5.298;2024-01-30T05:38:29;7.80;99.90
20915;DHT22;10617;52.032;5.298;2024-01-30T05:42:30;7.80;99.90
20915;DHT22;10617;52.032;5.298;2024-01-30T05:46:33;7.90;99.90
20915;DHT22;10617;52.032;5.298;2024-01-30T05:50:35;7.90;99.90
20915;DHT22;10617;52.032;5.298;2024-01-30T05:54:37;7.90;99.90
20915;DHT22;10617;52.032;5.298;2024-01-30T05:58:39;7.90;99.90
20915;DHT22;10617;52.032;5.298;2024-01-30T06:02:41;7.90;99.90
20915;DHT22;10617;52.032;5.298;2024-01-30T06:06:42;7.90;99.90
20915;DHT22;10617;52.032;5.298;2024-01-30T06:15:36;8.00;99.90
20915;DHT22;10617;52.032;5.298;2024-01-30T06:19:38;8.00;99.90
20915;DHT22;10617;52.032;5.298;2024-01-30T06:23:40;8.00;99.90
20915;DHT22;10617;52.032;5.298;2024-01-30T06:27:43;8.00;99.90
20915;DHT22;10617;52.032;5.298;2024-01-30T06:31:45;8.00;99.90
20915;DHT22;10617;52.032;5.298;2024-01-30T06:35:47;8.00;99.90
20915;DHT22;10617;52.032;5.298;2024-01-30T06:39:48;8.00;99.90
20915;DHT22;10617;52.032;5.298;2024-01-30T06:43:50;8.10;99.90
20915;DHT22;10617;52.032;5.298;2024-01-30T06:47:52;8.10;99.90
20915;DHT22;10617;52.032;5.298;2024-01-30T06:51:54;8.10;99.90
20915;DHT22;10617;52.032;5.298;2024-01-30T06:55:56;8.10;99.90
20915;DHT22;10617;52.032;5.298;2024-01-30T06:59:58;8.10;99.90
20915;DHT22;10617;52.032;5.298;2024-01-30T07:04:00;8.10;99.90
20915;DHT22;10617;52.032;5.298;2024-01-30T07:08:02;8.10;99.90
20915;DHT22;10617;52.032;5.298;2024-01-30T07:12:04;8.20;99.90
20915;DHT22;10617;52.032;5.298;2024-01-30T07:21:22;8.20;99.90
20915;DHT22;10617;52.032;5.298;2024-01-30T07:25:29;8.20;99.90
20915;DHT22;10617;52.032;5.298;2024-01-30T07:29:31;8.30;99.90
20915;DHT22;10617;52.032;5.298;2024-01-30T07:33:33;8.30;99.90
20915;DHT22;10617;52.032;5.298;2024-01-30T07:37:35;8.40;99.90
20915;DHT22;10617;52.032;5.298;2024-01-30T07:41:37;8.50;99.90
20915;DHT22;10617;52.032;5.298;2024-01-30T07:45:42;8.60;99.90
20915;DHT22;10617;52.032;5.298;2024-01-30T07:49:44;8.60;99.90
20915;DHT22;10617;52.032;5.298;2024-01-30T07:53:53;8.70;99.90
20915;DHT22;10617;52.032;5.298;2024-01-30T07:57:54;8.80;99.90
20915;DHT22;10617;52.032;5.298;2024-01-30T08:02:12;8.90;99.90
20915;DHT22;10617;52.032;5.298;2024-01-30T08:06:15;9.00;99.90
20915;DHT22;10617;52.032;5.298;2024-01-30T08:10:16;9.10;99.90
20915;DHT22;10617;52.032;5.298;2024-01-30T08:14:22;9.20;99.90
20915;DHT22;10617;52.032;5.298;2024-01-30T08:18:23;9.40;99.90
20915;DHT22;10617;52.032;5.298;2024-01-30T08:22:25;9.50;99.90
20915;DHT22;10617;52.032;5.298;2024-01-30T08:26:27;9.60;99.90
20915;DHT22;10617;52.032;5.298;2024-01-30T08:30:29;9.70;99.90
20915;DHT22;10617;52.032;5.298;2024-01-30T08:34:31;9.80;99.90
20915;DHT22;10617;52.032;5.298;2024-01-30T08:38:33;9.90;99.90
20915;DHT22;10617;52.032;5.298;2024-01-30T08:42:35;10.00;99.90
20915;DHT22;10617;52.032;5.298;2024-01-30T08:46:37;10.10;99.90
20915;DHT22;10617;52.032;5.298;2024-01-30T08:50:39;10.20;99.90
20915;DHT22;10617;52.032;5.298;2024-01-30T08:54:41;10.30;99.90
20915;DHT22;10617;52.032;5.298;2024-01-30T08:58:42;10.30;99.90
20915;DHT22;10617;52.032;5.298;2024-01-30T09:02:44;10.40;99.90
20915;DHT22;10617;52.032;5.298;2024-01-30T09:06:48;10.50;99.90
20915;DHT22;10617;52.032;5.298;2024-01-30T09:10:57;10.60;99.90
20915;DHT22;10617;52.032;5.298;2024-01-30T09:15:21;10.60;99.90
20915;DHT22;10617;52.032;5.298;2024-01-30T09:19:26;10.70;99.90
20915;DHT22;10617;52.032;5.298;2024-01-30T09:23:28;10.70;99.90
20915;DHT22;10617;52.032;5.298;2024-01-30T09:27:30;10.70;99.90
20915;DHT22;10617;52.032;5.298;2024-01-30T09:31:32;10.70;99.90
20915;DHT22;10617;52.032;5.298;2024-01-30T09:35:35;10.70;99.90
20915;DHT22;10617;52.032;5.298;2024-01-30T09:39:38;10.70;99.90
20915;DHT22;10617;52.032;5.298;2024-01-30T09:43:39;10.70;99.90
20915;DHT22;10617;52.032;5.298;2024-01-30T09:47:44;10.70;99.90
20915;DHT22;10617;52.032;5.298;2024-01-30T09:51:48;10.80;99.90
20915;DHT22;10617;52.032;5.298;2024-01-30T09:55:51;10.80;99.90
20915;DHT22;10617;52.032;5.298;2024-01-30T09:59:53;10.80;99.90
20915;DHT22;10617;52.032;5.298;2024-01-30T10:03:58;10.90;99.90
20915;DHT22;10617;52.032;5.298;2024-01-30T10:08:00;10.90;99.90
20915;DHT22;10617;52.032;5.298;2024-01-30T10:12:03;10.90;99.90
20915;DHT22;10617;52.032;5.298;2024-01-30T10:16:06;10.90;99.90
20915;DHT22;10617;52.032;5.298;2024-01-30T10:20:09;10.90;99.90
20915;DHT22;10617;52.032;5.298;2024-01-30T10:24:11;11.00;99.90
20915;DHT22;10617;52.032;5.298;2024-01-30T10:28:15;11.10;99.90
20915;DHT22;10617;52.032;5.298;2024-01-30T10:32:17;11.30;99.90
20915;DHT22;10617;52.032;5.298;2024-01-30T10:36:21;11.60;99.90
20915;DHT22;10617;52.032;5.298;2024-01-30T10:40:28;11.80;99.90
20915;DHT22;10617;52.032;5.298;2024-01-30T10:44:39;11.90;99.90
20915;DHT22;10617;52.032;5.298;2024-01-30T10:48:50;11.90;99.90
20915;DHT22;10617;52.032;5.298;2024-01-30T10:52:58;11.80;99.90
20915;DHT22;10617;52.032;5.298;2024-01-30T10:57:01;11.70;99.90
20915;DHT22;10617;52.032;5.298;2024-01-30T11:01:06;11.60;99.90
20915;DHT22;10617;52.032;5.298;2024-01-30T11:05:09;11.60;99.90
20915;DHT22;10617;52.032;5.298;2024-01-30T11:09:11;11.70;99.90
20915;DHT22;10617;52.032;5.298;2024-01-30T11:13:15;11.70;99.90
20915;DHT22;10617;52.032;5.298;2024-01-30T11:17:17;11.80;99.90
20915;DHT22;10617;52.032;5.298;2024-01-30T11:21:19;11.90;99.90
20915;DHT22;10617;52.032;5.298;2024-01-30T11:25:21;11.80;99.90
20915;DHT22;10617;52.032;5.298;2024-01-30T11:29:25;11.60;99.90
20915;DHT22;10617;52.032;5.298;2024-01-30T11:33:30;11.50;99.90
20915;DHT22;10617;52.032;5.298;2024-01-30T11:37:37;11.40;99.90
20915;DHT22;10617;52.032;5.298;2024-01-30T11:41:41;11.30;99.90
20915;DHT22;10617;52.032;5.298;2024-01-30T11:45:43;11.20;99.90
20915;DHT22;10617;52.032;5.298;2024-01-30T11:49:46;11.20;99.90
20915;DHT22;10617;52.032;5.298;2024-01-30T11:53:51;11.30;99.90
20915;DHT22;10617;52.032;5.298;2024-01-30T11:57:57;11.30;99.90
20915;DHT22;10617;52.032;5.298;2024-01-30T12:07:15;11.40;99.90
20915;DHT22;10617;52.032;5.298;2024-01-30T12:11:18;11.50;99.90
20915;DHT22;10617;52.032;5.298;2024-01-30T12:15:21;11.40;99.90
20915;DHT22;10617;52.032;5.298;2024-01-30T12:19:24;11.30;99.90
20915;DHT22;10617;52.032;5.298;2024-01-30T12:23:27;11.20;99.90
20915;DHT22;10617;52.032;5.298;2024-01-30T12:27:30;11.00;99.90
20915;DHT22;10617;52.032;5.298;2024-01-30T12:42:16;10.60;99.90
20915;DHT22;10617;52.032;5.298;2024-01-30T12:46:17;10.30;99.90
20915;DHT22;10617;52.032;5.298;2024-01-30T12:50:20;10.20;99.90
20915;DHT22;10617;52.032;5.298;2024-01-30T12:54:23;10.00;99.90
20915;DHT22;10617;52.032;5.298;2024-01-30T12:58:24;9.90;99.90
20915;DHT22;10617;52.032;5.298;2024-01-30T13:02:27;9.80;99.90
20915;DHT22;10617;52.032;5.298;2024-01-30T13:06:36;9.80;99.90
20915;DHT22;10617;52.032;5.298;2024-01-30T13:10:38;9.90;99.90
20915;DHT22;10617;52.032;5.298;2024-01-30T13:14:40;9.90;99.90
20915;DHT22;10617;52.032;5.298;2024-01-30T13:18:43;9.90;99.90
20915;DHT22;10617;52.032;5.298;2024-01-30T13:22:47;10.00;99.90
20915;DHT22;10617;52.032;5.298;2024-01-30T13:26:49;10.00;99.90
20915;DHT22;10617;52.032;5.298;2024-01-30T13:30:52;10.00;99.90
20915;DHT22;10617;52.032;5.298;2024-01-30T13:34:54;9.90;99.90
20915;DHT22;10617;52.032;5.298;2024-01-30T13:38:55;9.80;99.90
20915;DHT22;10617;52.032;5.298;2024-01-30T13:42:57;9.70;99.90
20915;DHT22;10617;52.032;5.298;2024-01-30T13:46:59;9.60;99.90
20915;DHT22;10617;52.032;5.298;2024-01-30T13:51:01;9.50;99.90
20915;DHT22;10617;52.032;5.298;2024-01-30T13:55:03;9.40;99.90
20915;DHT22;10617;52.032;5.298;2024-01-30T13:59:05;9.40;99.90
20915;DHT22;10617;52.032;5.298;2024-01-30T14:03:07;9.40;99.90
20915;DHT22;10617;52.032;5.298;2024-01-30T14:07:09;9.40;99.90
20915;DHT22;10617;52.032;5.298;2024-01-30T14:11:11;9.40;99.90
20915;DHT22;10617;52.032;5.298;2024-01-30T14:15:13;9.40;99.90
20915;DHT22;10617;52.032;5.298;2024-01-30T14:19:35;9.50;99.90
20915;DHT22;10617;52.032;5.298;2024-01-30T14:23:37;9.50;99.90
20915;DHT22;10617;52.032;5.298;2024-01-30T14:27:40;9.40;99.90
20915;DHT22;10617;52.032;5.298;2024-01-30T14:31:42;9.40;99.90
20915;DHT22;10617;52.032;5.298;2024-01-30T14:35:44;9.40;99.90
20915;DHT22;10617;52.032;5.298;2024-01-30T14:44:43;9.20;99.90
20915;DHT22;10617;52.032;5.298;2024-01-30T14:48:45;9.10;99.90
20915;DHT22;10617;52.032;5.298;2024-01-30T14:52:47;9.00;99.90
20915;DHT22;10617;52.032;5.298;2024-01-30T14:57:13;8.80;99.90
20915;DHT22;10617;52.032;5.298;2024-01-30T15:01:16;8.60;99.90
20915;DHT22;10617;52.032;5.298;2024-01-30T15:05:17;8.60;99.90
20915;DHT22;10617;52.032;5.298;2024-01-30T15:09:53;8.50;99.90
20915;DHT22;10617;52.032;5.298;2024-01-30T15:13:55;8.50;99.90
20915;DHT22;10617;52.032;5.298;2024-01-30T15:17:57;8.40;99.90
20915;DHT22;10617;52.032;5.298;2024-01-30T15:22:00;8.40;99.90
20915;DHT22;10617;52.032;5.298;2024-01-30T15:26:02;8.40;99.90
20915;DHT22;10617;52.032;5.298;2024-01-30T15:30:04;8.40;99.90
20915;DHT22;10617;52.032;5.298;2024-01-30T15:34:06;8.40;99.90
20915;DHT22;10617;52.032;5.298;2024-01-30T15:38:08;8.40;99.90
20915;DHT22;10617;52.032;5.298;2024-01-30T15:42:10;8.40;99.90
20915;DHT22;10617;52.032;5.298;2024-01-30T15:46:12;8.30;99.90
20915;DHT22;10617;52.032;5.298;2024-01-30T15:50:14;8.30;99.90
20915;DHT22;10617;52.032;5.298;2024-01-30T15:54:16;8.30;99.90
20915;DHT22;10617;52.032;5.298;2024-01-30T15:58:19;8.30;99.90
20915;DHT22;10617;52.032;5.298;2024-01-30T16:02:20;8.20;99.90
20915;DHT22;10617;52.032;5.298;2024-01-30T16:11:45;8.20;99.90
20915;DHT22;10617;52.032;5.298;2024-01-30T16:15:46;8.10;99.90
20915;DHT22;10617;52.032;5.298;2024-01-30T16:19:49;8.10;99.90
20915;DHT22;10617;52.032;5.298;2024-01-30T16:23:54;8.10;99.90
20915;DHT22;10617;52.032;5.298;2024-01-30T16:27:56;8.10;99.90
20915;DHT22;10617;52.032;5.298;2024-01-30T16:31:57;8.10;99.90
20915;DHT22;10617;52.032;5.298;2024-01-30T16:35:59;8.10;99.90
20915;DHT22;10617;52.032;5.298;2024-01-30T16:40:01;8.10;99.90
20915;DHT22;10617;52.032;5.298;2024-01-30T16:44:04;8.00;99.90
20915;DHT22;10617;52.032;5.298;2024-01-30T16:53:29;8.00;99.90
20915;DHT22;10617;52.032;5.298;2024-01-30T16:57:31;8.00;99.90
20915;DHT22;10617;52.032;5.298;2024-01-30T17:01:37;8.00;99.90
20915;DHT22;10617;52.032;5.298;2024-01-30T17:05:39;8.00;99.90
20915;DHT22;10617;52.032;5.298;2024-01-30T17:14:26;8.00;99.90
20915;DHT22;10617;52.032;5.298;2024-01-30T17:18:33;8.00;99.90
20915;DHT22;10617;52.032;5.298;2024-01-30T17:22:35;8.10;99.90
20915;DHT22;10617;52.032;5.298;2024-01-30T17:31:18;8.00;99.90
20915;DHT22;10617;52.032;5.298;2024-01-30T17:35:20;8.00;99.90
20915;DHT22;10617;52.032;5.298;2024-01-30T17:39:22;8.00;99.90
20915;DHT22;10617;52.032;5.298;2024-01-30T17:43:24;8.00;99.90
20915;DHT22;10617;52.032;5.298;2024-01-30T17:47:26;8.00;99.90
20915;DHT22;10617;52.032;5.298;2024-01-30T17:51:27;8.00;99.90
20915;DHT22;10617;52.032;5.298;2024-01-30T17:55:29;7.90;99.90
20915;DHT22;10617;52.032;5.298;2024-01-30T17:59:31;7.90;99.90
20915;DHT22;10617;52.032;5.298;2024-01-30T18:03:33;7.90;99.90
20915;DHT22;10617;52.032;5.298;2024-01-30T18:07:35;7.90;99.90
20915;DHT22;10617;52.032;5.298;2024-01-30T18:11:40;7.90;99.90
20915;DHT22;10617;52.032;5.298;2024-01-30T18:15:42;7.80;99.90
20915;DHT22;10617;52.032;5.298;2024-01-30T18:19:44;7.80;99.90
20915;DHT22;10617;52.032;5.298;2024-01-30T18:23:45;7.80;99.90
20915;DHT22;10617;52.032;5.298;2024-01-30T18:27:48;7.80;99.90
20915;DHT22;10617;52.032;5.298;2024-01-30T18:31:52;7.80;99.90
20915;DHT22;10617;52.032;5.298;2024-01-30T18:36:12;7.70;99.90
20915;DHT22;10617;52.032;5.298;2024-01-30T18:40:14;7.70;99.90
20915;DHT22;10617;52.032;5.298;2024-01-30T18:44:20;7.70;99.90
20915;DHT22;10617;52.032;5.298;2024-01-30T18:48:22;7.70;99.90
20915;DHT22;10617;52.032;5.298;2024-01-30T18:52:24;7.60;99.90
20915;DHT22;10617;52.032;5.298;2024-01-30T18:56:26;7.60;99.90
20915;DHT22;10617;52.032;5.298;2024-01-30T19:00:28;7.60;99.90
20915;DHT22;10617;52.032;5.298;2024-01-30T19:04:29;7.60;99.90
20915;DHT22;10617;52.032;5.298;2024-01-30T19:08:31;7.60;99.90
20915;DHT22;10617;52.032;5.298;2024-01-30T19:12:33;7.60;99.90
20915;DHT22;10617;52.032;5.298;2024-01-30T19:16:38;7.60;99.90
20915;DHT22;10617;52.032;5.298;2024-01-30T19:20:42;7.60;99.90
20915;DHT22;10617;52.032;5.298;2024-01-30T19:24:44;7.60;99.90
20915;DHT22;10617;52.032;5.298;2024-01-30T19:28:46;7.50;99.90
20915;DHT22;10617;52.032;5.298;2024-01-30T19:32:50;7.50;99.90
20915;DHT22;10617;52.032;5.298;2024-01-30T19:36:52;7.50;99.90
20915;DHT22;10617;52.032;5.298;2024-01-30T19:40:54;7.50;99.90
20915;DHT22;10617;52.032;5.298;2024-01-30T19:44:56;7.50;99.90
20915;DHT22;10617;52.032;5.298;2024-01-30T19:48:58;7.50;99.90
20915;DHT22;10617;52.032;5.298;2024-01-30T19:53:00;7.50;99.90
20915;DHT22;10617;52.032;5.298;2024-01-30T19:57:03;7.50;99.90
20915;DHT22;10617;52.032;5.298;2024-01-30T20:01:05;7.50;99.90
20915;DHT22;10617;52.032;5.298;2024-01-30T20:05:08;7.50;99.90
20915;DHT22;10617;52.032;5.298;2024-01-30T20:09:11;7.40;99.90
20915;DHT22;10617;52.032;5.298;2024-01-30T20:13:12;7.40;99.90
20915;DHT22;10617;52.032;5.298;2024-01-30T20:17:14;7.40;99.90
20915;DHT22;10617;52.032;5.298;2024-01-30T20:21:17;7.40;99.90
20915;DHT22;10617;52.032;5.298;2024-01-30T20:25:19;7.40;99.90
20915;DHT22;10617;52.032;5.298;2024-01-30T20:29:21;7.40;99.90
20915;DHT22;10617;52.032;5.298;2024-01-30T20:33:23;7.40;99.90
20915;DHT22;10617;52.032;5.298;2024-01-30T20:37:26;7.40;99.90
20915;DHT22;10617;52.032;5.298;2024-01-30T20:41:28;7.40;99.90
20915;DHT22;10617;52.032;5.298;2024-01-30T20:45:29;7.40;99.90
20915;DHT22;10617;52.032;5.298;2024-01-30T20:49:32;7.40;99.90
20915;DHT22;10617;52.032;5.298;2024-01-30T20:53:34;7.30;99.90
20915;DHT22;10617;52.032;5.298;2024-01-30T20:57:36;7.30;99.90
20915;DHT22;10617;52.032;5.298;2024-01-30T21:01:38;7.30;99.90
20915;DHT22;10617;52.032;5.298;2024-01-30T21:05:41;7.30;99.90
20915;DHT22;10617;52.032;5.298;2024-01-30T21:09:43;7.30;99.90
20915;DHT22;10617;52.032;5.298;2024-01-30T21:13:45;7.30;99.90
20915;DHT22;10617;52.032;5.298;2024-01-30T21:17:47;7.20;99.90
20915;DHT22;10617;52.032;5.298;2024-01-30T21:21:49;7.20;99.90
20915;DHT22;10617;52.032;5.298;2024-01-30T21:25:50;7.20;99.90
20915;DHT22;10617;52.032;5.298;2024-01-30T21:29:52;7.10;99.90
20915;DHT22;10617;52.032;5.298;2024-01-30T21:33:54;7.10;99.90
20915;DHT22;10617;52.032;5.298;2024-01-30T21:37:56;7.10;99.90
20915;DHT22;10617;52.032;5.298;2024-01-30T21:41:58;7.10;99.90
20915;DHT22;10617;52.032;5.298;2024-01-30T21:46:00;7.10;99.90
20915;DHT22;10617;52.032;5.298;2024-01-30T21:50:02;7.00;99.90
20915;DHT22;10617;52.032;5.298;2024-01-30T21:54:05;7.00;99.90
20915;DHT22;10617;52.032;5.298;2024-01-30T21:58:07;6.90;99.90
20915;DHT22;10617;52.032;5.298;2024-01-30T22:02:08;6.90;99.90
20915;DHT22;10617;52.032;5.298;2024-01-30T22:06:11;6.90;99.90
20915;DHT22;10617;52.032;5.298;2024-01-30T22:10:13;6.90;99.90
20915;DHT22;10617;52.032;5.298;2024-01-30T22:14:18;6.90;99.90
20915;DHT22;10617;52.032;5.298;2024-01-30T22:18:19;6.80;99.90
20915;DHT22;10617;52.032;5.298;2024-01-30T22:22:21;6.80;99.90
20915;DHT22;10617;52.032;5.298;2024-01-30T22:26:23;6.80;99.90
20915;DHT22;10617;52.032;5.298;2024-01-30T22:30:25;6.70;99.90
20915;DHT22;10617;52.032;5.298;2024-01-30T22:34:27;6.70;99.90
20915;DHT22;10617;52.032;5.298;2024-01-30T22:38:29;6.60;99.90
20915;DHT22;10617;52.032;5.298;2024-01-30T22:42:31;6.60;99.90
20915;DHT22;10617;52.032;5.298;2024-01-30T22:46:33;6.60;99.90
20915;DHT22;10617;52.032;5.298;2024-01-30T22:50:35;6.50;99.90
20915;DHT22;10617;52.032;5.298;2024-01-30T22:54:37;6.50;99.90
20915;DHT22;10617;52.032;5.298;2024-01-30T22:58:39;6.50;99.90
20915;DHT22;10617;52.032;5.298;2024-01-30T23:02:41;6.50;99.90
20915;DHT22;10617;52.032;5.298;2024-01-30T23:06:43;6.50;99.90
20915;DHT22;10617;52.032;5.298;2024-01-30T23:10:45;6.50;99.90
20915;DHT22;10617;52.032;5.298;2024-01-30T23:14:47;6.40;99.90
20915;DHT22;10617;52.032;5.298;2024-01-30T23:18:51;6.40;99.90
20915;DHT22;10617;52.032;5.298;2024-01-30T23:22:53;6.40;99.90
20915;DHT22;10617;52.032;5.298;2024-01-30T23:26:54;6.40;99.90
20915;DHT22;10617;52.032;5.298;2024-01-30T23:30:56;6.40;99.90
20915;DHT22;10617;52.032;5.298;2024-01-30T23:34:59;6.40;99.90
20915;DHT22;10617;52.032;5.298;2024-01-30T23:39:02;6.30;99.90
20915;DHT22;10617;52.032;5.298;2024-01-30T23:43:05;6.20;99.90
20915;DHT22;10617;52.032;5.298;2024-01-30T23:47:07;6.20;99.90
20915;DHT22;10617;52.032;5.298;2024-01-30T23:51:10;6.10;99.90
20915;DHT22;10617;52.032;5.298;2024-01-30T23:55:12;6.00;99.90
20915;DHT22;10617;52.032;5.298;2024-01-30T23:59:14;5.90;99.90
